Wilkie, Canada
Current Conditions -  °F | °C
As of 9:00 AM on Friday 31 Oct 2014 (Local Time) from CYQW Reporting Station
Overcast Overcast  
Wind Chill: 25°   Ceiling: 17000
Heat Index: 36°   Visibility: 8mi
Dew Point: 32°   Wind: 18mph
Humidity: 87%   Direction: 120°ESE
Pressure: 29.88"   Gusts: 28mph
Location:  52.42°N, 108.7°W
Report Text: CYQW 311500Z AUTO 12016G24KT 8SM SCT150 OVC170 02/M00 A2988 RMK SLP145
Loading
Personal Weather Stations






























Interactive Weather Map
Tropical Storm Tracking
New forecast layout! Learn more

10-Day Weather Forecast

Advertisements
Track Severe Weather on mobile